Time;durP1;ratioP1;P1;durP2;ratioP2;P2;SDS_P1;SDS_P2;PMS_P1;PMS_P2;Temp;Humidity;BMP_temperature;BMP_pressure;BME280_temperature;BME280_humidity;BME280_pressure;Samples;Min_cycle;Max_cycle;Signal;HPM_P1;HPM_P2
2022/04/02 00:01:58;;;;;;;3.85;2.35;;;1.40;1.00;;;;;;4917823;28;20414;-80
2022/04/02 00:04:27;;;;;;;4.30;2.97;;;1.50;1.00;;;;;;4932149;28;20268;-80
2022/04/02 00:06:54;;;;;;;4.10;2.50;;;1.40;1.00;;;;;;4921747;28;20251;-80
2022/04/02 00:09:28;;;;;;;6.80;2.80;;;1.40;1.00;;;;;;4914907;28;20285;-78
2022/04/02 00:11:57;;;;;;;3.92;2.60;;;1.40;1.00;;;;;;4948471;28;20229;-81
2022/04/02 00:14:27;;;;;;;5.20;3.45;;;1.40;1.00;;;;;;4944094;28;20273;-80
2022/04/02 00:16:58;;;;;;;5.22;2.90;;;1.30;1.00;;;;;;4931788;28;21161;-80
2022/04/02 00:19:29;;;;;;;4.18;2.42;;;1.30;1.00;;;;;;4943803;28;20272;-80
2022/04/02 00:21:58;;;;;;;3.78;2.60;;;1.40;1.00;;;;;;4942896;28;20811;-80
2022/04/02 00:24:27;;;;;;;5.57;3.00;;;1.30;1.00;;;;;;4927266;28;20283;-81
2022/04/02 00:27:06;;;;;;;6.50;3.00;;;1.30;1.00;;;;;;4922472;28;20247;-80
2022/04/02 00:29:40;;;;;;;6.18;3.05;;;1.30;1.00;;;;;;4916670;28;20249;-81
2022/04/02 00:32:09;;;;;;;5.32;3.08;;;1.30;1.00;;;;;;4924800;28;20248;-80
2022/04/02 00:34:38;;;;;;;2.90;2.10;;;1.30;1.00;;;;;;4913199;28;20249;-80
2022/04/02 00:37:07;;;;;;;6.82;3.28;;;1.30;1.00;;;;;;4938160;28;20239;-80
2022/04/02 00:39:37;;;;;;;6.15;2.60;;;1.30;1.00;;;;;;4923908;28;20241;-81
2022/04/02 00:42:05;;;;;;;5.57;3.55;;;1.30;1.00;;;;;;4941363;28;20296;-80
2022/04/02 00:44:39;;;;;;;6.00;2.88;;;1.30;1.00;;;;;;4933239;28;20292;-80
2022/04/02 00:47:08;;;;;;;3.58;2.70;;;1.30;1.00;;;;;;4943022;28;21115;-81
2022/04/02 00:49:39;;;;;;;4.45;2.35;;;1.30;1.00;;;;;;4944157;28;20237;-81
2022/04/02 00:52:08;;;;;;;6.50;3.30;;;1.30;1.00;;;;;;4945440;28;20427;-80
2022/04/02 00:54:40;;;;;;;4.35;2.90;;;1.20;1.00;;;;;;4937856;28;20332;-80
2022/04/02 00:57:17;;;;;;;4.32;3.08;;;1.20;1.00;;;;;;4931993;28;20269;-81
2022/04/02 00:59:50;;;;;;;5.07;2.83;;;1.10;1.00;;;;;;4943548;28;20240;-80
2022/04/02 01:02:28;;;;;;;5.82;2.92;;;1.20;1.00;;;;;;4945615;28;20386;-80
2022/04/02 01:05:08;;;;;;;3.55;2.83;;;1.20;1.00;;;;;;4919834;28;20910;-80
2022/04/02 01:07:59;;;;;;;5.20;2.97;;;1.10;1.00;;;;;;4941004;28;20245;-81
2022/04/02 01:10:30;;;;;;;4.03;3.10;;;1.10;1.00;;;;;;4933300;28;20237;-81
2022/04/02 01:12:58;;;;;;;5.03;2.80;;;1.10;1.00;;;;;;4931593;28;20427;-80
2022/04/02 01:15:30;;;;;;;3.80;2.80;;;1.10;1.00;;;;;;4932510;28;20506;-80
2022/04/02 01:18:07;;;;;;;7.15;3.40;;;1.10;1.00;;;;;;4926335;28;20260;-80
2022/04/02 01:20:40;;;;;;;5.00;2.80;;;1.10;1.00;;;;;;4918963;28;20249;-80
2022/04/02 01:23:38;;;;;;;7.50;3.33;;;1.10;1.00;;;;;;4910959;28;20308;-80
2022/04/02 01:26:08;;;;;;;4.60;3.03;;;1.10;1.00;;;;;;4900025;28;20221;-80
2022/04/02 01:28:38;;;;;;;4.75;3.35;;;1.10;1.00;;;;;;4948977;28;20244;-80
2022/04/02 01:31:08;;;;;;;5.45;2.90;;;1.00;1.00;;;;;;4942776;28;20372;-79
2022/04/02 01:33:38;;;;;;;4.32;3.20;;;1.00;1.00;;;;;;4932413;28;20249;-80
2022/04/02 01:36:11;;;;;;;5.95;4.35;;;1.00;1.00;;;;;;4920441;28;20242;-81
2022/04/02 01:38:39;;;;;;;4.97;2.83;;;1.00;1.00;;;;;;4904148;28;20264;-80
2022/04/02 01:41:08;;;;;;;4.18;3.22;;;1.00;1.00;;;;;;4925017;28;20238;-80
2022/04/02 01:43:38;;;;;;;4.70;3.33;;;1.00;1.00;;;;;;4936193;28;20252;-82
2022/04/02 01:46:19;;;;;;;6.40;3.28;;;1.10;1.00;;;;;;4935062;28;20240;-80
2022/04/02 01:48:47;;;;;;;6.28;3.17;;;1.10;1.00;;;;;;4933721;28;20283;-79
2022/04/02 01:51:24;;;;;;;5.90;2.58;;;1.10;1.00;;;;;;4944508;28;20241;-81
2022/04/02 01:53:50;;;;;;;4.90;3.50;;;1.10;1.00;;;;;;4942265;28;20244;-80
2022/04/02 01:56:19;;;;;;;5.78;3.10;;;1.20;1.00;;;;;;4945364;28;20248;-80
2022/04/02 01:58:46;;;;;;;5.45;2.70;;;1.20;1.00;;;;;;4921841;28;20333;-79
2022/04/02 02:01:17;;;;;;;5.60;3.05;;;1.20;1.00;;;;;;4941084;28;20316;-79
2022/04/02 02:03:44;;;;;;;3.70;2.75;;;1.30;1.00;;;;;;4925662;28;20245;-79
2022/04/02 02:06:11;;;;;;;3.15;2.63;;;1.30;1.00;;;;;;4930492;28;20246;-80
2022/04/02 02:08:38;;;;;;;5.10;3.55;;;1.30;1.00;;;;;;4921015;28;20245;-79
2022/04/02 02:11:08;;;;;;;3.58;3.20;;;1.30;1.00;;;;;;4930675;28;20252;-80
2022/04/02 02:13:39;;;;;;;4.13;2.70;;;1.30;1.00;;;;;;4912164;28;20385;-80
2022/04/02 02:16:10;;;;;;;4.93;2.78;;;1.30;1.00;;;;;;4917022;28;20331;-81
2022/04/02 02:18:38;;;;;;;10.27;3.90;;;1.30;1.00;;;;;;4938721;28;20293;-80
2022/04/02 02:21:05;;;;;;;4.40;2.80;;;1.20;1.00;;;;;;4937234;28;20224;-80
2022/04/02 02:23:42;;;;;;;6.05;2.63;;;1.30;1.00;;;;;;4933130;28;20244;-79
2022/04/02 02:26:09;;;;;;;6.78;3.30;;;1.30;1.00;;;;;;4931776;28;20244;-80
2022/04/02 02:29:09;;;;;;;6.55;3.00;;;1.30;1.00;;;;;;4896445;28;20338;-80
2022/04/02 02:31:49;;;;;;;3.88;2.95;;;1.40;1.00;;;;;;4930272;28;21048;-80
2022/04/02 02:37:09;;;;;;;4.93;2.70;;;1.40;1.00;;;;;;4939450;28;20231;-80
2022/04/02 02:39:40;;;;;;;5.38;2.67;;;1.40;1.00;;;;;;4942497;28;20387;-80
2022/04/02 02:42:11;;;;;;;3.55;2.47;;;1.50;1.00;;;;;;4947352;28;20268;-81
2022/04/02 02:44:40;;;;;;;6.05;2.97;;;1.40;1.00;;;;;;4943873;28;21178;-80
2022/04/02 02:47:19;;;;;;;3.58;2.72;;;1.40;1.00;;;;;;4944218;28;20229;-82
2022/04/02 02:49:50;;;;;;;4.28;2.53;;;1.40;1.00;;;;;;4930892;28;20252;-82
2022/04/02 02:52:21;;;;;;;5.05;2.78;;;1.40;1.00;;;;;;4934617;28;20276;-81
2022/04/02 02:54:48;;;;;;;7.38;4.00;;;1.40;1.00;;;;;;4930830;28;20253;-80
2022/04/02 02:57:21;;;;;;;9.15;2.45;;;1.40;1.00;;;;;;4934670;28;20246;-80
2022/04/02 02:59:49;;;;;;;4.45;2.75;;;1.40;1.00;;;;;;4931806;28;20838;-80
2022/04/02 03:02:19;;;;;;;3.40;2.60;;;1.40;1.00;;;;;;4930555;28;20229;-80
2022/04/02 03:04:50;;;;;;;6.30;2.70;;;1.30;1.00;;;;;;4938526;28;20245;-81
2022/04/02 03:07:20;;;;;;;5.32;2.60;;;1.30;1.00;;;;;;4934986;28;20477;-81
2022/04/02 03:09:47;;;;;;;6.20;2.60;;;1.30;1.00;;;;;;4948670;28;20333;-81
2022/04/02 03:12:21;;;;;;;4.45;2.70;;;1.30;1.00;;;;;;4932425;28;20244;-80
2022/04/02 03:14:50;;;;;;;4.18;2.90;;;1.30;1.00;;;;;;4942885;28;20283;-80
2022/04/02 03:17:19;;;;;;;3.40;2.72;;;1.30;1.00;;;;;;4955027;28;20245;-80
2022/04/02 03:19:46;;;;;;;4.38;2.65;;;1.30;1.00;;;;;;4953974;28;20543;-80
2022/04/02 03:22:23;;;;;;;4.85;2.40;;;1.30;1.00;;;;;;4964010;28;20257;-79
2022/04/02 03:24:50;;;;;;;6.05;2.90;;;1.30;1.00;;;;;;4951667;28;20242;-79
2022/04/02 03:27:21;;;;;;;4.80;2.70;;;1.30;1.00;;;;;;4946406;28;20343;-82
2022/04/02 03:29:49;;;;;;;6.90;3.17;;;1.40;1.00;;;;;;4970984;28;20213;-80
2022/04/02 03:32:18;;;;;;;5.13;2.65;;;1.40;1.00;;;;;;4927086;28;20469;-81
2022/04/02 03:34:46;;;;;;;4.05;2.95;;;1.40;1.00;;;;;;4966248;28;20256;-79
2022/04/02 03:37:24;;;;;;;6.57;2.97;;;1.40;1.00;;;;;;4955215;28;20236;-80
2022/04/02 03:39:51;;;;;;;3.90;2.80;;;1.40;1.00;;;;;;4951622;28;20242;-81
2022/04/02 03:42:26;;;;;;;7.20;3.10;;;1.40;1.00;;;;;;4950085;28;20250;-82
2022/04/02 03:45:06;;;;;;;4.28;3.13;;;1.40;1.00;;;;;;4928228;28;20317;-79
2022/04/02 03:47:41;;;;;;;4.22;3.00;;;1.40;1.00;;;;;;4941642;28;20325;-79
2022/04/02 03:50:08;;;;;;;5.93;3.13;;;1.40;1.00;;;;;;4926670;28;20244;-79
2022/04/02 03:52:40;;;;;;;5.82;2.60;;;1.30;1.00;;;;;;4914711;28;20267;-81
2022/04/02 03:55:09;;;;;;;5.82;2.97;;;1.30;1.00;;;;;;4939926;28;20247;-79
2022/04/02 03:57:39;;;;;;;3.90;3.45;;;1.30;1.00;;;;;;4957156;28;20483;-80
2022/04/02 04:00:10;;;;;;;4.63;2.50;;;1.30;1.00;;;;;;4940753;28;20225;-80
2022/04/02 04:02:38;;;;;;;6.03;2.72;;;1.30;1.00;;;;;;4938108;28;20232;-80
2022/04/02 04:05:08;;;;;;;6.63;2.97;;;1.30;1.00;;;;;;4940439;28;20236;-80
2022/04/02 04:07:35;;;;;;;5.82;2.38;;;1.30;1.00;;;;;;4945355;28;20229;-80
2022/04/02 04:10:01;;;;;;;6.05;2.70;;;1.30;1.00;;;;;;4933011;28;20244;-80
2022/04/02 04:12:29;;;;;;;6.35;3.20;;;1.30;1.00;;;;;;4944116;28;20236;-79
2022/04/02 04:14:58;;;;;;;3.85;2.40;;;1.30;1.00;;;;;;4956169;28;20245;-81
2022/04/02 04:17:33;;;;;;;4.88;2.20;;;1.30;1.00;;;;;;4934287;28;20367;-80
2022/04/02 04:20:00;;;;;;;5.60;2.20;;;1.30;1.00;;;;;;4942091;28;20256;-80
2022/04/02 04:22:26;;;;;;;3.83;2.40;;;1.30;1.00;;;;;;4944473;28;20233;-81
2022/04/02 04:24:53;;;;;;;4.38;2.55;;;1.30;1.00;;;;;;4936104;28;20312;-80
2022/04/02 04:27:20;;;;;;;4.47;2.90;;;1.30;1.00;;;;;;4940448;28;20292;-79
2022/04/02 04:29:48;;;;;;;4.38;2.60;;;1.30;1.00;;;;;;4924139;28;20241;-80
2022/04/02 04:32:18;;;;;;;11.15;3.67;;;1.40;1.00;;;;;;4941271;28;20252;-82
2022/04/02 04:34:53;;;;;;;10.23;2.97;;;1.40;1.00;;;;;;4928901;28;20266;-81
2022/04/02 04:37:21;;;;;;;4.95;2.88;;;1.30;1.00;;;;;;4935062;28;20233;-81
2022/04/02 04:39:49;;;;;;;4.97;2.80;;;1.40;1.00;;;;;;4945015;28;20241;-81
2022/04/02 04:42:21;;;;;;;7.47;3.65;;;1.40;1.00;;;;;;4944081;28;20651;-82
2022/04/02 04:44:51;;;;;;;4.63;3.20;;;1.40;1.00;;;;;;4956056;28;20344;-82
2022/04/02 04:47:19;;;;;;;7.00;2.92;;;1.40;1.00;;;;;;4953376;28;20327;-80
2022/04/02 04:49:53;;;;;;;5.60;2.70;;;1.50;1.00;;;;;;4955488;28;20312;-80
2022/04/02 04:52:24;;;;;;;4.68;2.80;;;1.50;1.00;;;;;;4954003;28;20236;-81
2022/04/02 04:54:56;;;;;;;4.85;2.78;;;1.60;1.00;;;;;;4950971;28;20251;-80
2022/04/02 04:57:23;;;;;;;8.23;2.60;;;1.60;1.00;;;;;;4952037;28;20240;-80
2022/04/02 04:59:53;;;;;;;4.55;2.65;;;1.70;1.00;;;;;;4952931;28;20276;-81
2022/04/02 05:02:22;;;;;;;5.32;2.80;;;1.70;1.00;;;;;;4945141;28;20257;-80
2022/04/02 05:04:51;;;;;;;4.93;2.95;;;1.80;1.00;;;;;;4939580;28;20275;-82
2022/04/02 05:07:24;;;;;;;6.15;2.70;;;1.90;1.00;;;;;;4940337;28;20400;-81
2022/04/02 05:09:53;;;;;;;3.85;2.30;;;1.90;1.00;;;;;;4950641;28;20228;-82
2022/04/02 05:12:22;;;;;;;8.07;3.35;;;1.90;1.00;;;;;;4954399;28;22719;-81
2022/04/02 05:14:54;;;;;;;5.88;2.80;;;1.90;1.00;;;;;;4956940;28;20277;-81
2022/04/02 05:17:21;;;;;;;4.72;2.85;;;1.90;1.00;;;;;;4953485;28;20240;-80
2022/04/02 05:19:53;;;;;;;7.97;3.35;;;2.00;1.00;;;;;;4952940;28;20237;-80
2022/04/02 05:22:21;;;;;;;4.22;2.00;;;2.00;1.00;;;;;;4959699;28;20244;-81
2022/04/02 05:24:58;;;;;;;5.90;2.88;;;2.00;1.00;;;;;;4953625;28;20249;-81
2022/04/02 05:27:33;;;;;;;6.07;2.90;;;2.10;1.00;;;;;;4953541;28;20248;-80
2022/04/02 05:30:02;;;;;;;5.20;3.15;;;2.10;1.00;;;;;;4950986;28;20284;-83
2022/04/02 05:32:32;;;;;;;5.90;2.72;;;2.20;1.00;;;;;;4953173;28;20288;-81
2022/04/02 05:35:00;;;;;;;5.82;2.60;;;2.30;1.00;;;;;;4929576;28;20248;-80
2022/04/02 05:37:33;;;;;;;4.93;2.72;;;2.30;1.00;;;;;;4934593;28;20261;-81
2022/04/02 05:40:06;;;;;;;3.65;2.47;;;2.30;1.00;;;;;;4951645;28;20244;-81
2022/04/02 05:42:33;;;;;;;5.28;2.20;;;2.40;1.00;;;;;;4950369;28;20332;-81
2022/04/02 05:45:02;;;;;;;4.82;1.83;;;2.50;1.00;;;;;;4951183;28;23719;-80
2022/04/02 05:47:43;;;;;;;9.25;3.03;;;2.50;1.00;;;;;;4946973;28;20221;-83
2022/04/02 05:50:15;;;;;;;4.90;2.40;;;2.50;1.00;;;;;;4949137;28;20248;-82
2022/04/02 05:52:42;;;;;;;5.82;2.60;;;2.60;1.00;;;;;;4933302;28;20415;-83
2022/04/02 05:55:14;;;;;;;4.30;2.70;;;2.60;1.00;;;;;;4948115;28;22229;-81
2022/04/02 05:57:42;;;;;;;3.10;2.35;;;2.70;1.00;;;;;;4948629;28;20268;-80
2022/04/02 06:00:15;;;;;;;4.90;2.25;;;2.70;1.00;;;;;;4939092;28;20224;-82
2022/04/02 06:02:43;;;;;;;5.35;2.60;;;2.70;1.00;;;;;;4939689;28;21328;-80
2022/04/02 06:05:15;;;;;;;5.55;2.50;;;2.70;1.00;;;;;;4948766;28;20255;-80
2022/04/02 06:07:44;;;;;;;4.93;3.05;;;2.70;1.00;;;;;;4946660;28;20275;-80
2022/04/02 06:10:16;;;;;;;6.22;3.60;;;2.80;1.00;;;;;;4944534;28;20244;-81
2022/04/02 06:12:43;;;;;;;4.47;2.97;;;2.90;1.00;;;;;;4945142;28;20788;-80
2022/04/02 06:15:15;;;;;;;3.45;2.10;;;3.00;1.00;;;;;;4944072;28;20228;-81
2022/04/02 06:17:42;;;;;;;5.63;2.40;;;3.20;1.00;;;;;;4944128;28;20233;-81
2022/04/02 06:20:15;;;;;;;3.50;2.55;;;3.30;1.00;;;;;;4944830;28;20248;-82
2022/04/02 06:22:42;;;;;;;4.80;3.20;;;3.50;1.00;;;;;;4947973;28;20241;-81
2022/04/02 06:25:21;;;;;;;4.70;2.60;;;3.60;1.00;;;;;;4944291;28;20449;-81
2022/04/02 06:27:54;;;;;;;5.32;3.05;;;3.70;1.00;;;;;;4945528;28;20237;-81
2022/04/02 06:30:22;;;;;;;7.45;3.70;;;3.70;1.00;;;;;;4947894;28;20808;-80
2022/04/02 06:32:53;;;;;;;6.40;3.80;;;3.80;1.00;;;;;;4949379;28;20227;-80
2022/04/02 06:35:20;;;;;;;5.22;3.13;;;3.90;1.00;;;;;;4943240;28;20252;-80
2022/04/02 06:37:54;;;;;;;4.97;3.10;;;4.00;1.00;;;;;;4957092;28;20301;-80
2022/04/02 06:40:41;;;;;;;4.00;2.40;;;4.20;1.00;;;;;;4963911;28;20312;-81
2022/04/02 06:43:13;;;;;;;6.32;2.85;;;4.30;1.00;;;;;;4954396;28;20243;-81
2022/04/02 06:45:40;;;;;;;7.55;3.70;;;4.40;1.00;;;;;;4947865;28;20248;-82
2022/04/02 06:48:13;;;;;;;3.65;3.08;;;4.60;1.00;;;;;;4944234;28;20247;-82
2022/04/02 06:50:44;;;;;;;6.80;2.85;;;4.80;1.00;;;;;;4946567;28;20248;-83
2022/04/02 06:53:13;;;;;;;5.72;2.55;;;5.00;1.00;;;;;;4949766;28;20238;-83
2022/04/02 06:55:45;;;;;;;4.78;2.80;;;5.10;1.00;;;;;;4948362;28;20249;-82
2022/04/02 06:58:33;;;;;;;5.40;2.65;;;5.30;1.00;;;;;;4943280;28;20241;-82
2022/04/02 07:01:01;;;;;;;6.68;2.85;;;5.40;1.00;;;;;;4941249;28;20323;-82
2022/04/02 07:03:35;;;;;;;7.00;2.80;;;5.50;1.00;;;;;;4943153;28;20225;-82
2022/04/02 07:06:02;;;;;;;6.18;2.50;;;5.60;1.00;;;;;;4944700;28;21163;-82
2022/04/02 07:08:33;;;;;;;4.53;2.65;;;5.60;1.00;;;;;;4949407;28;20236;-83
2022/04/02 07:11:03;;;;;;;5.63;2.60;;;5.60;1.00;;;;;;4952515;28;20233;-83
2022/04/02 07:13:33;;;;;;;6.95;2.60;;;5.60;1.00;;;;;;4948614;28;20252;-86
2022/04/02 07:16:02;;;;;;;4.80;2.42;;;5.70;1.00;;;;;;4948646;28;20245;-84
2022/04/02 07:18:34;;;;;;;5.15;2.60;;;5.80;1.00;;;;;;4952178;28;20316;-84
2022/04/02 07:21:02;;;;;;;6.15;3.17;;;5.90;1.00;;;;;;4950525;28;20276;-82
2022/04/02 07:23:33;;;;;;;4.60;3.55;;;6.00;1.00;;;;;;4948252;28;20230;-84
2022/04/02 07:26:14;;;;;;;6.38;2.75;;;6.20;1.00;;;;;;4948969;28;20781;-86
2022/04/02 07:28:43;;;;;;;3.55;1.88;;;6.40;1.00;;;;;;4948712;28;20293;-84
2022/04/02 07:31:13;;;;;;;3.55;2.17;;;6.50;1.00;;;;;;4951730;28;20221;-85
2022/04/02 07:33:45;;;;;;;8.48;2.30;;;6.50;1.00;;;;;;4947271;28;21124;-85
2022/04/02 07:39:20;;;;;;;5.40;2.20;;;6.80;1.00;;;;;;4954801;28;20244;-85
2022/04/02 07:42:02;;;;;;;6.95;3.03;;;6.70;1.00;;;;;;4945058;28;20237;-84
2022/04/02 07:44:52;;;;;;;6.05;2.10;;;6.70;1.00;;;;;;4953116;28;20229;-86
2022/04/02 07:47:25;;;;;;;3.72;2.33;;;6.90;1.00;;;;;;4947437;28;20285;-86
2022/04/02 07:50:01;;;;;;;3.95;1.92;;;6.90;1.00;;;;;;4950720;28;20253;-76
2022/04/02 07:52:31;;;;;;;3.65;2.47;;;6.90;1.00;;;;;;4936845;28;20261;-76
2022/04/02 07:55:05;;;;;;;2.60;1.90;;;6.80;1.00;;;;;;4940314;28;20236;-77
2022/04/02 07:57:44;;;;;;;5.93;2.10;;;6.70;1.00;;;;;;4936600;28;20413;-76
2022/04/02 08:00:12;;;;;;;5.53;2.05;;;6.70;1.00;;;;;;4937393;28;20237;-75
2022/04/02 08:02:42;;;;;;;4.75;2.25;;;6.70;1.00;;;;;;4939557;28;20827;-75
2022/04/02 08:05:11;;;;;;;4.25;1.80;;;6.40;1.00;;;;;;4939540;28;20269;-75
2022/04/02 08:07:40;;;;;;;3.42;2.20;;;6.30;1.00;;;;;;4940532;28;20249;-75
2022/04/02 08:10:14;;;;;;;6.55;3.38;;;6.40;1.00;;;;;;4943378;28;20237;-75
2022/04/02 08:12:43;;;;;;;5.53;1.85;;;6.40;1.00;;;;;;4944746;28;20265;-75
2022/04/02 08:15:13;;;;;;;3.10;1.50;;;6.20;1.00;;;;;;4941638;28;20236;-75
2022/04/02 08:17:40;;;;;;;4.40;2.28;;;6.20;1.00;;;;;;4943525;28;20241;-75
2022/04/02 08:20:15;;;;;;;6.38;2.83;;;6.20;1.00;;;;;;4948289;28;20296;-74
2022/04/02 08:22:42;;;;;;;3.88;2.15;;;6.00;1.00;;;;;;4940776;28;21214;-75
2022/04/02 08:25:16;;;;;;;6.15;2.20;;;5.90;1.00;;;;;;4941740;28;20329;-74
2022/04/02 08:27:59;;;;;;;7.03;2.40;;;5.90;1.00;;;;;;4936409;28;20256;-74
2022/04/02 08:30:33;;;;;;;4.43;2.90;;;5.80;1.00;;;;;;4938533;28;20811;-74
2022/04/02 08:33:32;;;;;;;3.80;1.88;;;5.90;1.00;;;;;;4933312;28;20323;-72
2022/04/02 08:36:09;;;;;;;5.15;1.98;;;5.90;1.00;;;;;;4940918;28;20328;-74
2022/04/02 08:38:43;;;;;;;3.92;1.92;;;6.00;1.00;;;;;;4941177;28;20283;-74
2022/04/02 08:41:52;;;;;;;3.47;2.20;;;6.10;1.00;;;;;;4945727;28;20240;-75
2022/04/02 08:44:52;;;;;;;3.88;2.50;;;6.20;1.00;;;;;;4937557;28;20244;-74
2022/04/02 08:47:43;;;;;;;4.78;2.30;;;6.30;1.00;;;;;;4932515;28;20244;-74
2022/04/02 08:50:14;;;;;;;5.05;1.95;;;6.30;1.00;;;;;;4944976;28;20325;-74
2022/04/02 08:52:51;;;;;;;3.65;1.73;;;6.50;1.00;;;;;;4940814;28;20272;-74
2022/04/02 08:55:24;;;;;;;3.42;2.20;;;6.50;1.00;;;;;;4943950;28;20247;-74
2022/04/02 08:58:06;;;;;;;3.42;2.75;;;6.60;1.00;;;;;;4939422;28;20244;-75
2022/04/02 09:00:43;;;;;;;3.22;2.65;;;6.70;1.00;;;;;;4938676;28;20241;-75
2022/04/02 09:03:37;;;;;;;8.13;2.95;;;6.80;1.00;;;;;;4941739;28;20347;-77
2022/04/02 09:06:43;;;;;;;4.43;2.47;;;7.00;1.00;;;;;;4942617;28;20241;-76
2022/04/02 09:09:29;;;;;;;5.00;2.65;;;7.10;1.00;;;;;;4931742;28;20586;-76
2022/04/02 09:12:34;;;;;;;4.82;2.95;;;7.10;1.00;;;;;;4942907;28;20251;-76
2022/04/02 09:15:14;;;;;;;3.10;2.25;;;7.50;1.00;;;;;;4905799;28;20380;-77
2022/04/02 09:18:01;;;;;;;4.03;2.50;;;7.50;1.00;;;;;;4945281;28;20248;-76
2022/04/02 09:20:52;;;;;;;3.10;1.88;;;7.90;1.00;;;;;;4942541;28;20259;-76
2022/04/02 09:23:37;;;;;;;4.13;2.53;;;8.30;1.00;;;;;;4941840;28;20324;-77
2022/04/02 09:26:51;;;;;;;5.47;2.90;;;8.90;1.00;;;;;;4945206;28;21211;-77
2022/04/02 09:29:25;;;;;;;4.40;3.20;;;9.30;1.00;;;;;;4945154;28;20248;-77
2022/04/02 09:32:38;;;;;;;4.15;2.53;;;9.50;1.00;;;;;;4950368;28;20477;-77
2022/04/02 09:35:52;;;;;;;6.50;3.33;;;9.50;1.00;;;;;;4920865;28;20376;-77
2022/04/02 09:38:51;;;;;;;2.73;1.90;;;9.60;1.00;;;;;;4947007;28;20249;-77
2022/04/02 09:41:27;;;;;;;5.90;2.70;;;11.30;1.00;;;;;;4952838;28;20422;-78
2022/04/02 09:44:07;;;;;;;4.10;2.10;;;13.70;1.00;;;;;;4944912;28;20508;-77
2022/04/02 09:46:54;;;;;;;4.97;2.40;;;14.50;1.00;;;;;;4948771;28;20535;-78
2022/04/02 09:49:25;;;;;;;6.60;3.30;;;13.20;1.00;;;;;;4944007;28;20477;-77
2022/04/02 09:51:58;;;;;;;4.27;2.10;;;12.30;1.00;;;;;;4960800;28;20434;-78
2022/04/02 09:54:41;;;;;;;4.70;2.30;;;11.80;1.00;;;;;;4968665;28;20453;-77
2022/04/02 09:57:23;;;;;;;3.93;2.00;;;12.90;1.00;;;;;;4963251;28;20422;-78
2022/04/02 10:00:04;;;;;;;4.67;3.10;;;14.40;1.00;;;;;;4951421;28;20544;-78
2022/04/02 10:03:04;;;;;;;3.60;2.40;;;15.60;1.00;;;;;;4954741;28;20420;-78
2022/04/02 10:05:45;;;;;;;4.53;2.40;;;16.20;1.00;;;;;;4958429;28;20430;-78
2022/04/02 10:08:22;;;;;;;4.37;2.40;;;15.60;1.00;;;;;;4955029;28;20477;-79
2022/04/02 10:11:02;;;;;;;3.70;2.30;;;15.40;1.00;;;;;;4956505;28;20437;-78
2022/04/02 10:13:35;;;;;;;5.60;3.10;;;16.30;1.00;;;;;;4960534;28;20588;-77
2022/04/02 10:16:05;;;;;;;3.43;2.70;;;16.30;1.00;;;;;;4953339;28;20453;-79
2022/04/02 10:18:36;;;;;;;4.73;3.00;;;15.50;1.00;;;;;;4965791;28;21497;-77
2022/04/02 10:21:05;;;;;;;4.80;2.80;;;14.20;1.00;;;;;;4984527;23;20455;-77
2022/04/02 10:23:42;;;;;;;3.80;2.97;;;13.50;1.00;;;;;;4978239;28;20488;-77
2022/04/02 10:26:17;;;;;;;5.47;2.87;;;12.80;1.00;;;;;;4992080;28;20430;-76
2022/04/02 10:28:54;;;;;;;4.77;2.30;;;12.30;1.00;;;;;;4980870;28;20413;-77
2022/04/02 10:31:40;;;;;;;3.90;2.70;;;11.70;1.00;;;;;;4970110;28;20559;-75
2022/04/02 10:34:17;;;;;;;6.70;3.43;;;11.50;1.00;;;;;;5000228;23;20480;-76
2022/04/02 10:37:00;;;;;;;3.40;3.10;;;12.10;1.00;;;;;;4978747;28;20420;-76
2022/04/02 10:39:30;;;;;;;5.93;3.40;;;12.90;1.00;;;;;;4955851;28;20462;-76
2022/04/02 10:42:07;;;;;;;4.20;3.40;;;13.40;1.00;;;;;;4962338;28;20456;-75
2022/04/02 10:44:44;;;;;;;4.10;3.20;;;13.50;1.00;;;;;;4965716;28;20473;-77
2022/04/02 10:47:16;;;;;;;4.30;3.03;;;14.70;1.00;;;;;;4964464;28;20433;-76
2022/04/02 10:49:48;;;;;;;8.37;3.87;;;16.90;1.00;;;;;;4961087;28;20420;-78
2022/04/02 10:52:19;;;;;;;5.10;3.70;;;18.00;1.00;;;;;;4956505;28;20424;-79
2022/04/02 10:54:50;;;;;;;6.67;3.40;;;17.90;1.00;;;;;;4966765;28;20426;-78
2022/04/02 10:57:18;;;;;;;5.50;4.93;;;17.00;1.00;;;;;;4969276;28;20433;-80
2022/04/02 10:59:48;;;;;;;4.87;3.10;;;15.30;1.00;;;;;;4970947;28;20703;-79
2022/04/02 11:02:27;;;;;;;4.03;2.90;;;13.90;1.00;;;;;;4966682;28;20436;-79
2022/04/02 11:05:00;;;;;;;6.20;2.67;;;14.30;1.00;;;;;;4969452;28;20473;-78
2022/04/02 11:07:37;;;;;;;3.27;2.63;;;14.50;1.00;;;;;;4962944;28;20433;-79
2022/04/02 11:10:14;;;;;;;4.73;3.40;;;15.80;1.00;;;;;;4957175;28;20500;-78
2022/04/02 11:12:44;;;;;;;4.03;3.10;;;17.50;1.00;;;;;;4963497;28;20390;-77
2022/04/02 11:15:13;;;;;;;6.80;3.27;;;18.00;1.00;;;;;;4957672;28;20273;-78
2022/04/02 11:17:43;;;;;;;3.70;2.73;;;17.30;1.00;;;;;;4960068;28;20478;-77
2022/04/02 11:20:15;;;;;;;3.50;3.20;;;17.60;1.00;;;;;;4955014;28;20458;-80
2022/04/02 11:23:13;;;;;;;4.90;3.67;;;17.00;1.00;;;;;;4946757;28;20481;-78
2022/04/02 11:25:50;;;;;;;12.53;3.33;;;16.30;1.00;;;;;;4947351;28;20469;-76
2022/04/02 11:28:20;;;;;;;4.20;2.47;;;15.10;1.00;;;;;;4942307;28;20493;-77
2022/04/02 11:30:52;;;;;;;3.37;2.63;;;14.70;1.00;;;;;;4928671;28;20434;-77
2022/04/02 11:33:22;;;;;;;3.60;2.07;;;15.50;1.00;;;;;;4921832;28;20477;-78
2022/04/02 11:35:53;;;;;;;3.17;2.70;;;15.80;1.00;;;;;;4920406;28;20485;-78
2022/04/02 11:38:34;;;;;;;5.23;2.70;;;15.00;1.00;;;;;;4915965;28;20673;-77
2022/04/02 11:41:10;;;;;;;4.77;3.40;;;14.30;1.00;;;;;;4911237;28;20514;-77
2022/04/02 11:43:40;;;;;;;4.50;2.70;;;13.40;1.00;;;;;;4926285;28;20458;-78
2022/04/02 11:46:11;;;;;;;5.73;2.53;;;12.60;1.00;;;;;;4920975;28;20581;-76
2022/04/02 11:48:51;;;;;;;4.93;3.00;;;12.20;1.00;;;;;;4942656;28;20465;-78
2022/04/02 11:51:19;;;;;;;2.50;1.83;;;11.80;1.00;;;;;;4943496;28;20545;-77
2022/04/02 11:53:51;;;;;;;3.20;2.13;;;11.60;1.00;;;;;;4933871;28;20453;-78
2022/04/02 11:56:30;;;;;;;3.80;2.20;;;11.40;1.00;;;;;;4936123;28;20553;-78
2022/04/02 11:59:00;;;;;;;3.00;2.40;;;11.30;1.00;;;;;;4930557;28;20572;-78
2022/04/02 12:01:41;;;;;;;3.20;2.30;;;11.40;1.00;;;;;;4922746;28;20585;-78
2022/04/02 12:04:13;;;;;;;7.17;2.43;;;12.10;1.00;;;;;;4928326;28;20461;-78
2022/04/02 12:06:41;;;;;;;5.90;2.73;;;14.10;1.00;;;;;;4933643;28;20454;-77
2022/04/02 12:09:12;;;;;;;5.47;2.27;;;15.10;1.00;;;;;;4915795;28;20655;-77
2022/04/02 12:11:42;;;;;;;3.33;2.70;;;14.50;1.00;;;;;;4907842;28;20465;-78
2022/04/02 12:14:34;;;;;;;4.10;2.83;;;13.30;1.00;;;;;;4922739;28;23173;-78
2022/04/02 12:17:10;;;;;;;8.47;3.30;;;12.10;1.00;;;;;;4934298;28;20420;-77
2022/04/02 12:19:40;;;;;;;4.93;2.37;;;11.40;1.00;;;;;;4939195;28;21151;-78
2022/04/02 12:22:18;;;;;;;4.07;2.33;;;10.50;1.00;;;;;;4933798;28;20421;-77
2022/04/02 12:24:54;;;;;;;4.10;2.57;;;10.00;1.00;;;;;;4935226;28;20445;-79
2022/04/02 12:27:23;;;;;;;4.80;3.03;;;9.60;1.00;;;;;;4929869;28;20492;-79
2022/04/02 12:29:55;;;;;;;5.38;2.97;;;9.20;1.00;;;;;;4936183;28;20430;-79
2022/04/02 12:32:33;;;;;;;4.20;3.05;;;8.90;1.00;;;;;;4941816;28;21180;-78
2022/04/02 12:35:02;;;;;;;4.57;3.03;;;8.70;1.00;;;;;;4939007;28;20511;-80
2022/04/02 12:37:32;;;;;;;7.32;2.83;;;8.50;1.00;;;;;;4935759;28;20293;-78
2022/04/02 12:40:00;;;;;;;2.38;2.00;;;8.50;1.00;;;;;;4947051;28;20296;-77
2022/04/02 12:42:37;;;;;;;3.85;2.65;;;8.50;1.00;;;;;;4955529;28;20252;-76
2022/04/02 12:45:13;;;;;;;3.47;2.50;;;8.50;1.00;;;;;;4948814;28;20355;-78
2022/04/02 12:47:41;;;;;;;4.38;2.70;;;8.40;1.00;;;;;;4956049;28;20532;-79
2022/04/02 12:50:16;;;;;;;2.95;2.17;;;8.60;1.00;;;;;;4945747;28;20245;-79
2022/04/02 12:52:56;;;;;;;4.85;2.60;;;8.80;1.00;;;;;;4946551;28;20244;-78
2022/04/02 12:55:24;;;;;;;6.38;3.42;;;8.90;1.00;;;;;;4936699;28;20321;-76
2022/04/02 12:58:00;;;;;;;4.10;2.65;;;9.00;1.00;;;;;;4934406;28;20222;-77
2022/04/02 13:00:34;;;;;;;3.72;2.38;;;8.90;1.00;;;;;;4928716;28;20284;-77
2022/04/02 13:03:02;;;;;;;8.88;2.20;;;8.70;1.00;;;;;;4930225;28;20240;-77
2022/04/02 13:05:44;;;;;;;31.20;5.93;;;8.40;1.00;;;;;;4933834;28;21289;-79
2022/04/02 13:08:24;;;;;;;8.73;2.60;;;8.10;1.00;;;;;;4944950;28;20225;-77
2022/04/02 13:10:55;;;;;;;5.38;2.10;;;8.00;1.00;;;;;;4950415;28;20269;-78
2022/04/02 13:13:35;;;;;;;3.38;2.10;;;7.80;1.00;;;;;;4947324;28;21796;-77
2022/04/02 13:16:03;;;;;;;4.55;2.53;;;7.70;1.00;;;;;;4948497;28;20305;-78
2022/04/02 13:21:20;;;;;;;6.40;2.25;;;7.70;1.00;;;;;;4949769;28;20241;-77
2022/04/02 13:24:21;;;;;;;5.63;2.13;;;7.70;1.00;;;;;;4952056;28;20253;-78
2022/04/02 13:27:02;;;;;;;2.83;1.95;;;7.80;1.00;;;;;;4948190;28;21843;-78
2022/04/02 13:29:53;;;;;;;6.90;2.90;;;8.00;1.00;;;;;;4948502;28;20225;-78
2022/04/02 13:33:04;;;;;;;4.75;2.90;;;8.20;1.00;;;;;;4950150;28;20273;-77
2022/04/02 13:35:36;;;;;;;3.75;2.40;;;8.50;1.00;;;;;;4951057;28;20291;-77
2022/04/02 13:38:35;;;;;;;3.55;2.00;;;8.80;1.00;;;;;;4948061;28;20322;-77
2022/04/02 13:41:04;;;;;;;5.25;2.75;;;9.10;1.00;;;;;;4947132;28;20237;-77
2022/04/02 13:43:34;;;;;;;3.78;2.80;;;9.20;1.00;;;;;;4949445;28;20233;-78
2022/04/02 13:46:04;;;;;;;7.72;3.38;;;9.20;1.00;;;;;;4951592;28;20255;-77
2022/04/02 13:48:36;;;;;;;4.45;3.50;;;9.00;1.00;;;;;;4951983;28;20233;-77
2022/04/02 13:51:10;;;;;;;5.10;3.10;;;8.70;1.00;;;;;;4944233;28;20240;-77